Time;durP1;ratioP1;P1;durP2;ratioP2;P2;SDS_P1;SDS_P2;PMS_P1;PMS_P2;Temp;Humidity;BMP_temperature;BMP_pressure;BME280_temperature;BME280_humidity;BME280_pressure;Samples;Min_cycle;Max_cycle;Signal;HPM_P1;HPM_P2
2021/11/28 11:12:42;;;;;;;31.27;12.80;;;3.30;99.90;;;;;;5196543;23;20056;-88
2021/11/28 11:15:08;;;;;;;29.40;12.02;;;3.50;99.90;;;;;;5079827;28;20037;-88
2021/11/28 11:17:34;;;;;;;25.80;13.13;;;3.50;99.90;;;;;;5051259;28;20135;-88
2021/11/28 11:20:00;;;;;;;27.23;12.15;;;3.50;99.90;;;;;;5046894;28;20044;-89
2021/11/28 11:22:30;;;;;;;30.08;12.23;;;3.60;99.90;;;;;;5046991;28;20048;-88
2021/11/28 11:24:59;;;;;;;26.30;11.27;;;3.50;99.90;;;;;;5050713;28;20077;-88
2021/11/28 11:27:36;;;;;;;33.40;15.70;;;3.70;99.90;;;;;;5048226;28;20056;-88
2021/11/28 11:30:09;;;;;;;36.13;15.20;;;3.70;99.90;;;;;;5059628;28;20135;-89
2021/11/28 11:32:47;;;;;;;30.85;13.75;;;3.80;99.90;;;;;;5064913;28;20037;-87
2021/11/28 11:35:18;;;;;;;37.50;16.23;;;3.80;99.90;;;;;;5052248;28;20060;-88
2021/11/28 11:37:48;;;;;;;36.30;16.30;;;3.90;99.90;;;;;;5061519;28;20043;-88
2021/11/28 11:40:35;;;;;;;35.67;15.30;;;3.80;99.90;;;;;;5076004;28;20044;-88
2021/11/28 11:43:04;;;;;;;31.90;14.88;;;4.00;99.90;;;;;;4986087;28;20078;-88
2021/11/28 11:45:33;;;;;;;29.40;12.00;;;3.90;99.90;;;;;;5019922;28;20050;-88
2021/11/28 11:47:59;;;;;;;27.90;11.98;;;4.00;99.90;;;;;;5015963;28;20049;-89
2021/11/28 11:50:26;;;;;;;26.13;11.13;;;4.10;99.90;;;;;;5005624;28;20049;-88
2021/11/28 11:52:55;;;;;;;24.60;11.60;;;4.20;99.90;;;;;;4987776;28;20034;-88
2021/11/28 11:55:24;;;;;;;23.92;11.88;;;4.20;99.90;;;;;;5001716;28;20062;-89
2021/11/28 11:58:06;;;;;;;23.05;10.48;;;4.40;99.90;;;;;;5006319;28;20072;-89
2021/11/28 12:00:45;;;;;;;26.60;11.82;;;4.40;99.90;;;;;;5006240;28;20038;-89
2021/11/28 12:03:18;;;;;;;31.23;14.23;;;4.30;99.90;;;;;;4990517;28;20038;-88
2021/11/28 12:05:50;;;;;;;28.17;12.80;;;4.30;99.90;;;;;;5006714;28;20038;-88
2021/11/28 12:08:16;;;;;;;32.92;14.68;;;4.50;99.90;;;;;;4990658;28;20038;-89
2021/11/28 12:10:43;;;;;;;35.17;17.17;;;4.60;99.90;;;;;;5006037;28;20091;-89
2021/11/28 12:13:14;;;;;;;28.90;14.60;;;4.60;99.90;;;;;;4989971;28;20049;-89
2021/11/28 12:15:48;;;;;;;31.55;14.60;;;4.60;99.90;;;;;;5018713;28;20551;-88
2021/11/28 12:18:45;;;;;;;31.15;13.88;;;4.60;99.90;;;;;;5005690;28;20101;-87
2021/11/28 12:21:32;;;;;;;27.20;12.38;;;4.50;99.90;;;;;;5048839;28;20100;-88
2021/11/28 12:24:19;;;;;;;27.20;12.32;;;4.50;99.90;;;;;;5042007;28;20044;-87
2021/11/28 12:26:49;;;;;;;26.50;10.88;;;4.50;99.90;;;;;;5064102;28;20049;-87
2021/11/28 12:29:14;;;;;;;24.50;10.43;;;4.40;99.90;;;;;;5065531;28;20276;-88
2021/11/28 12:31:48;;;;;;;18.60;9.88;;;4.40;99.90;;;;;;5058514;28;20302;-89
2021/11/28 12:34:19;;;;;;;19.40;8.10;;;4.40;99.90;;;;;;5047680;28;20045;-87
2021/11/28 12:36:50;;;;;;;19.52;9.48;;;4.40;99.90;;;;;;5043538;28;20047;-86
2021/11/28 12:39:22;;;;;;;19.52;10.02;;;4.40;99.90;;;;;;5073906;28;20047;-88
2021/11/28 12:41:48;;;;;;;20.13;10.05;;;4.40;99.90;;;;;;5054249;28;20036;-88
2021/11/28 12:44:32;;;;;;;18.90;8.48;;;4.40;99.90;;;;;;5054568;28;20063;-88
2021/11/28 12:47:10;;;;;;;17.00;8.02;;;4.40;99.90;;;;;;5074099;28;20036;-89
2021/11/28 12:49:44;;;;;;;17.30;9.77;;;4.30;99.90;;;;;;5056777;28;20044;-88
2021/11/28 12:52:34;;;;;;;20.00;9.00;;;4.30;99.90;;;;;;5088135;28;20036;-89
2021/11/28 12:55:02;;;;;;;21.00;10.40;;;4.30;99.90;;;;;;5073790;28;20070;-90
2021/11/28 12:57:29;;;;;;;22.33;10.65;;;4.30;99.90;;;;;;5073863;28;20040;-88
2021/11/28 13:00:19;;;;;;;21.52;11.23;;;4.30;99.90;;;;;;5073175;28;20024;-88
2021/11/28 13:02:53;;;;;;;20.45;9.32;;;4.30;99.90;;;;;;5073687;28;20127;-88
2021/11/28 13:05:40;;;;;;;23.73;10.50;;;4.40;99.90;;;;;;5074078;28;20145;-87
2021/11/28 13:08:06;;;;;;;16.95;8.80;;;4.40;99.90;;;;;;5090191;28;20385;-88
2021/11/28 13:10:46;;;;;;;14.88;8.00;;;4.40;99.90;;;;;;5062788;28;20051;-88
2021/11/28 13:13:13;;;;;;;13.75;6.53;;;4.50;99.90;;;;;;5056797;28;20044;-88
2021/11/28 13:15:44;;;;;;;14.98;6.90;;;4.60;99.90;;;;;;5053595;28;20053;-87
2021/11/28 13:18:11;;;;;;;13.88;6.50;;;4.70;99.90;;;;;;5054240;28;20079;-88
2021/11/28 13:21:23;;;;;;;10.23;4.95;;;4.80;99.90;;;;;;5038694;28;20072;-88
2021/11/28 13:24:07;;;;;;;10.15;4.63;;;4.90;99.90;;;;;;5056322;28;20041;-87
2021/11/28 13:26:37;;;;;;;12.68;5.43;;;4.80;99.90;;;;;;5054429;28;20048;-88
2021/11/28 13:29:06;;;;;;;11.82;5.10;;;4.90;99.90;;;;;;5036938;28;20051;-89
2021/11/28 13:31:37;;;;;;;9.80;4.45;;;4.80;99.90;;;;;;5037096;28;20053;-88
2021/11/28 13:34:05;;;;;;;9.82;4.57;;;4.80;99.90;;;;;;5053667;28;20041;-88
2021/11/28 13:36:45;;;;;;;6.47;2.22;;;4.80;99.90;;;;;;5036941;28;20551;-89
2021/11/28 13:39:17;;;;;;;3.13;0.60;;;4.60;99.90;;;;;;5042360;28;20037;-88
2021/11/28 13:41:46;;;;;;;1.13;0.17;;;4.50;99.90;;;;;;5065830;28;20041;-87
2021/11/28 13:44:14;;;;;;;1.42;0.00;;;4.30;99.90;;;;;;5051454;28;20041;-88
2021/11/28 13:46:44;;;;;;;0.50;0.10;;;4.20;99.90;;;;;;5031452;28;20127;-84
2021/11/28 13:49:18;;;;;;;1.20;0.00;;;4.20;99.90;;;;;;5047339;28;20103;-87
2021/11/28 13:51:50;;;;;;;0.80;0.00;;;4.10;99.90;;;;;;5051777;28;20048;-86
2021/11/28 13:54:34;;;;;;;0.10;0.00;;;4.00;99.90;;;;;;5068906;28;20036;-85
2021/11/28 13:57:30;;;;;;;0.45;0.30;;;4.00;99.90;;;;;;5053244;28;20533;-86
2021/11/28 14:00:09;;;;;;;0.50;0.00;;;4.00;99.90;;;;;;5053794;28;20055;-86
2021/11/28 14:03:03;;;;;;;0.73;0.00;;;4.00;99.90;;;;;;5072497;28;20062;-86
2021/11/28 14:05:28;;;;;;;0.20;0.00;;;3.90;99.90;;;;;;5050383;28;20064;-86
2021/11/28 14:07:59;;;;;;;0.90;0.00;;;3.90;99.90;;;;;;5048382;28;20052;-86
2021/11/28 14:10:28;;;;;;;;;;;3.90;99.90;;;;;;5046837;28;20088;-86
2021/11/28 14:13:04;;;;;;;2.30;0.10;;;3.90;99.90;;;;;;5053382;28;19909;-86
2021/11/28 14:15:33;;;;;;;1.65;0.75;;;3.90;99.90;;;;;;5053375;28;20290;-84
2021/11/28 14:18:09;;;;;;;0.50;0.10;;;3.80;99.90;;;;;;5053565;28;20040;-86
2021/11/28 14:20:38;;;;;;;1.75;0.10;;;3.80;99.90;;;;;;5053216;28;20040;-85
2021/11/28 14:23:06;;;;;;;0.25;0.00;;;3.80;99.90;;;;;;5070024;28;20036;-86
2021/11/28 14:25:40;;;;;;;1.88;0.10;;;3.80;99.90;;;;;;5070099;28;20076;-88
2021/11/28 14:28:16;;;;;;;0.30;0.00;;;3.70;99.90;;;;;;5053483;28;20039;-87
2021/11/28 14:30:52;;;;;;;3.70;0.10;;;3.80;99.90;;;;;;5069801;28;20064;-86
2021/11/28 14:33:44;;;;;;;0.50;0.10;;;3.70;99.90;;;;;;5069705;28;20036;-89
2021/11/28 14:36:39;;;;;;;2.03;0.20;;;3.70;99.90;;;;;;5043952;28;20494;-87
2021/11/28 14:39:09;;;;;;;4.38;0.10;;;3.70;99.90;;;;;;5036680;28;20090;-88
2021/11/28 14:41:37;;;;;;;0.38;0.00;;;3.70;99.90;;;;;;5069369;28;20041;-87
2021/11/28 14:44:05;;;;;;;0.52;0.10;;;3.70;99.90;;;;;;5053093;28;20064;-87
2021/11/28 14:46:34;;;;;;;0.38;0.08;;;3.70;99.90;;;;;;5052876;28;20041;-88
2021/11/28 14:49:26;;;;;;;1.27;0.10;;;3.70;99.90;;;;;;5052989;28;20106;-87
2021/11/28 14:51:55;;;;;;;1.85;0.00;;;3.60;99.90;;;;;;5049428;28;20037;-89
2021/11/28 14:54:30;;;;;;;2.70;0.20;;;3.60;99.90;;;;;;5082953;28;20036;-87
2021/11/28 14:57:16;;;;;;;2.13;0.05;;;3.60;99.90;;;;;;5052921;28;20041;-87
2021/11/28 14:59:48;;;;;;;1.30;0.00;;;3.60;99.90;;;;;;5069520;28;20089;-87
2021/11/28 15:02:33;;;;;;;3.10;0.10;;;3.60;99.90;;;;;;5052818;28;20041;-88
2021/11/28 15:05:05;;;;;;;2.92;0.03;;;3.60;99.90;;;;;;5053193;28;20090;-88
2021/11/28 15:07:33;;;;;;;0.88;0.10;;;3.50;99.90;;;;;;5069787;28;20086;-87
2021/11/28 15:10:02;;;;;;;1.52;0.00;;;3.60;99.90;;;;;;5048688;28;20086;-88
2021/11/28 15:12:40;;;;;;;2.35;0.00;;;3.60;99.90;;;;;;5048710;28;20033;-89
2021/11/28 15:15:21;;;;;;;0.13;0.00;;;3.60;99.90;;;;;;5035288;28;20059;-88
2021/11/28 15:17:48;;;;;;;0.82;0.10;;;3.60;99.90;;;;;;5051347;28;20063;-88
2021/11/28 15:20:17;;;;;;;1.65;0.10;;;3.60;99.90;;;;;;5050857;28;20040;-89
2021/11/28 15:22:54;;;;;;;0.82;0.10;;;3.50;99.90;;;;;;5049946;28;20037;-88
2021/11/28 15:25:23;;;;;;;1.20;0.10;;;3.50;99.90;;;;;;5033049;28;20114;-89
2021/11/28 15:27:50;;;;;;;0.82;0.10;;;3.60;99.90;;;;;;5033310;28;20065;-89
2021/11/28 15:30:18;;;;;;;2.03;0.10;;;3.60;99.90;;;;;;5039794;28;20080;-88
2021/11/28 15:32:48;;;;;;;1.35;0.10;;;3.50;99.90;;;;;;5087285;28;20037;-88
2021/11/28 15:35:18;;;;;;;3.97;0.43;;;3.50;99.90;;;;;;5069576;28;20040;-90
2021/11/28 15:37:45;;;;;;;;;;;3.50;99.90;;;;;;5053385;28;20472;-89
2021/11/28 15:40:32;;;;;;;4.32;0.47;;;3.50;99.90;;;;;;5052489;28;19909;-88
2021/11/28 15:43:02;;;;;;;37.63;9.65;;;3.50;99.90;;;;;;5009025;28;20048;-90
2021/11/28 15:45:29;;;;;;;58.30;17.07;;;3.50;99.90;;;;;;4992927;28;20560;-89
2021/11/28 15:47:54;;;;;;;58.35;17.98;;;3.40;99.90;;;;;;5008964;28;20034;-89
2021/11/28 15:50:22;;;;;;;23.77;8.18;;;3.40;99.90;;;;;;5015868;28;20053;-90
2021/11/28 15:52:50;;;;;;;6.90;1.65;;;3.40;99.90;;;;;;5012314;28;20109;-89
2021/11/28 15:55:17;;;;;;;7.30;2.15;;;3.30;99.90;;;;;;5028606;28;20033;-89
2021/11/28 15:57:45;;;;;;;4.20;0.65;;;3.30;99.90;;;;;;5009237;28;20038;-90
2021/11/28 16:00:21;;;;;;;1.38;0.30;;;3.20;99.90;;;;;;4992702;28;20037;-91
2021/11/28 16:02:54;;;;;;;2.63;0.20;;;3.20;99.90;;;;;;5008774;28;20042;-91
2021/11/28 16:05:21;;;;;;;1.48;0.20;;;3.20;99.90;;;;;;4992810;28;20046;-90
2021/11/28 16:07:48;;;;;;;2.38;0.85;;;3.20;99.90;;;;;;4992557;28;20058;-90
2021/11/28 16:10:34;;;;;;;1.48;0.20;;;3.10;99.90;;;;;;4992369;28;20050;-89
2021/11/28 16:13:20;;;;;;;5.47;0.73;;;3.10;99.90;;;;;;4991416;28;20042;-90
2021/11/28 16:16:10;;;;;;;6.20;0.77;;;3.00;99.90;;;;;;5024016;28;20037;-92
2021/11/28 16:18:35;;;;;;;3.17;0.50;;;3.10;99.90;;;;;;4992421;28;20105;-90
2021/11/28 16:21:01;;;;;;;3.67;0.70;;;3.00;99.90;;;;;;5026109;28;20069;-90
2021/11/28 16:23:47;;;;;;;6.13;1.25;;;3.00;99.90;;;;;;5028901;28;20045;-90
2021/11/28 16:26:12;;;;;;;3.92;1.00;;;3.00;99.90;;;;;;5028915;28;20067;-91
2021/11/28 16:28:38;;;;;;;2.75;0.80;;;3.00;99.90;;;;;;5028822;28;20045;-90
2021/11/28 16:31:04;;;;;;;5.88;1.10;;;3.00;99.90;;;;;;5028815;28;20101;-91
2021/11/28 16:33:59;;;;;;;9.07;2.53;;;3.00;99.90;;;;;;5028896;28;20041;-90
2021/11/28 16:36:25;;;;;;;11.95;3.58;;;2.90;99.90;;;;;;5028418;28;20037;-91
2021/11/28 16:38:51;;;;;;;14.98;6.70;;;2.90;99.90;;;;;;5028592;28;20038;-90
2021/11/28 16:41:17;;;;;;;9.60;2.60;;;2.90;99.90;;;;;;5045055;28;20042;-92
2021/11/28 16:43:58;;;;;;;3.50;0.90;;;2.90;99.90;;;;;;5028892;28;20033;-90
2021/11/28 16:46:26;;;;;;;3.28;0.57;;;2.90;99.90;;;;;;5045370;28;20101;-91
2021/11/28 16:48:51;;;;;;;2.88;0.35;;;2.90;99.90;;;;;;5028845;28;20153;-90
2021/11/28 16:51:17;;;;;;;1.30;0.40;;;2.90;99.90;;;;;;5020580;28;20070;-90
2021/11/28 16:53:43;;;;;;;1.80;0.40;;;2.80;99.90;;;;;;5041773;28;20040;-90
2021/11/28 16:56:09;;;;;;;2.40;0.30;;;2.80;99.90;;;;;;5041507;28;20042;-90
2021/11/28 16:58:35;;;;;;;0.80;0.30;;;2.70;99.90;;;;;;5026100;28;20061;-89
2021/11/28 17:01:01;;;;;;;1.08;0.22;;;2.60;99.90;;;;;;5041382;28;20092;-91
2021/11/28 17:03:30;;;;;;;1.33;0.30;;;2.60;99.90;;;;;;5025134;28;20045;-90
2021/11/28 17:05:56;;;;;;;3.42;0.30;;;2.60;99.90;;;;;;5027493;28;20061;-90
2021/11/28 17:08:22;;;;;;;1.33;0.20;;;2.60;99.90;;;;;;5025288;28;20038;-91
2021/11/28 17:10:49;;;;;;;1.25;0.30;;;2.50;99.90;;;;;;5054003;28;20099;-91
2021/11/28 17:13:15;;;;;;;2.20;0.40;;;2.50;99.90;;;;;;5044956;28;20144;-91
2021/11/28 17:15:41;;;;;;;1.52;0.40;;;2.40;99.90;;;;;;5044788;28;20659;-91
2021/11/28 17:18:09;;;;;;;1.65;0.47;;;2.30;99.90;;;;;;5045078;28;20120;-91
2021/11/28 17:20:37;;;;;;;1.55;0.43;;;2.20;99.90;;;;;;5044730;28;20397;-90
2021/11/28 17:23:10;;;;;;;1.48;0.47;;;2.10;99.90;;;;;;5045367;28;20436;-91
2021/11/28 17:25:36;;;;;;;0.93;0.40;;;2.00;99.90;;;;;;5048532;28;20049;-91
2021/11/28 17:28:04;;;;;;;2.38;0.40;;;2.00;99.90;;;;;;5048719;28;20038;-90
2021/11/28 17:30:30;;;;;;;0.82;0.30;;;1.90;99.90;;;;;;5048322;28;20068;-91
2021/11/28 17:32:59;;;;;;;2.15;0.60;;;1.80;99.90;;;;;;5048399;28;20048;-92
2021/11/28 17:35:25;;;;;;;2.83;0.35;;;1.70;99.90;;;;;;5048357;28;20033;-91
2021/11/28 17:37:51;;;;;;;1.83;0.45;;;1.80;99.90;;;;;;5048568;28;20041;-91
2021/11/28 17:40:38;;;;;;;1.65;0.40;;;1.80;99.90;;;;;;5048018;28;20053;-91
2021/11/28 17:43:16;;;;;;;1.08;0.40;;;1.70;99.90;;;;;;5013088;28;20124;-91
2021/11/28 17:45:43;;;;;;;2.20;0.40;;;1.60;99.90;;;;;;5023851;28;20053;-93
2021/11/28 17:48:09;;;;;;;1.50;0.50;;;1.60;99.90;;;;;;5031163;28;20041;-93
2021/11/28 17:50:35;;;;;;;2.75;0.75;;;1.70;99.90;;;;;;5029693;28;20052;-92
2021/11/28 17:53:04;;;;;;;2.60;0.82;;;1.60;99.90;;;;;;5015037;28;20045;-92
2021/11/28 17:55:30;;;;;;;2.70;0.80;;;1.70;99.90;;;;;;5015104;28;20457;-93
2021/11/28 17:57:56;;;;;;;3.13;0.90;;;1.60;99.90;;;;;;5015326;28;20041;-94
2021/11/28 18:00:22;;;;;;;4.25;1.13;;;1.60;99.90;;;;;;5015103;28;20041;-93
2021/11/28 18:02:49;;;;;;;3.22;0.90;;;1.60;99.90;;;;;;5015660;28;20042;-93
2021/11/28 18:05:18;;;;;;;4.90;0.70;;;1.50;99.90;;;;;;5017590;28;20038;-92
2021/11/28 18:07:44;;;;;;;3.60;1.02;;;1.50;99.90;;;;;;5016667;28;20285;-93
2021/11/28 18:10:10;;;;;;;2.63;0.90;;;1.40;99.90;;;;;;5013288;28;20050;-93
2021/11/28 18:12:40;;;;;;;2.58;1.15;;;1.40;99.90;;;;;;5012460;28;20081;-92
2021/11/28 18:15:07;;;;;;;2.70;0.80;;;1.40;99.90;;;;;;5012064;28;20050;-92
2021/11/28 18:17:33;;;;;;;4.85;1.55;;;1.40;99.90;;;;;;5010698;28;20077;-92
2021/11/28 18:19:59;;;;;;;3.13;1.48;;;1.50;99.90;;;;;;5025467;28;20111;-92
2021/11/28 18:22:32;;;;;;;2.33;1.15;;;1.40;99.90;;;;;;5014897;28;20037;-92
2021/11/28 18:25:01;;;;;;;4.07;1.50;;;1.30;99.90;;;;;;5031240;28;20174;-93
2021/11/28 18:27:27;;;;;;;3.88;1.67;;;1.30;99.90;;;;;;5031232;28;20180;-93
2021/11/28 18:30:07;;;;;;;4.57;2.10;;;1.40;99.90;;;;;;5031391;28;20049;-92
2021/11/28 18:32:55;;;;;;;;;;;;;;;;;;;;;
2021/11/28 18:35:29;;;;;;;4.55;1.88;;;1.40;99.90;;;;;;5046849;28;20033;-93
2021/11/28 18:38:05;;;;;;;3.40;2.15;;;1.40;99.90;;;;;;5030716;28;20055;-93
2021/11/28 18:40:59;;;;;;;3.33;1.45;;;1.30;99.90;;;;;;5029290;28;20041;-93
2021/11/28 18:43:32;;;;;;;4.30;2.00;;;1.30;99.90;;;;;;5030956;28;20063;-94
2021/11/28 18:46:03;;;;;;;3.80;1.60;;;1.30;99.90;;;;;;5031167;28;20034;-93
2021/11/28 18:48:37;;;;;;;4.15;1.58;;;1.20;99.90;;;;;;5031798;28;20104;-93
2021/11/28 18:51:03;;;;;;;4.35;1.92;;;1.30;99.90;;;;;;5031833;28;20061;-93
2021/11/28 18:53:46;;;;;;;4.18;1.60;;;1.20;99.90;;;;;;5032348;28;20124;-94
2021/11/28 18:56:32;;;;;;;3.67;2.05;;;1.20;99.90;;;;;;5036718;28;20043;-93
2021/11/28 18:59:15;;;;;;;5.47;2.15;;;1.10;99.90;;;;;;5034808;28;20049;-93
2021/11/28 19:01:45;;;;;;;4.32;1.58;;;1.10;99.90;;;;;;5050035;28;20044;-93
2021/11/28 19:04:18;;;;;;;3.08;1.38;;;1.00;99.90;;;;;;5066573;28;20033;-93
2021/11/28 19:06:49;;;;;;;4.70;2.22;;;1.00;99.90;;;;;;5066698;28;20083;-95
2021/11/28 19:09:17;;;;;;;4.47;1.80;;;1.00;99.90;;;;;;5066562;28;20051;-93
2021/11/28 19:11:59;;;;;;;5.60;1.55;;;0.90;99.90;;;;;;5066527;28;20425;-93
2021/11/28 19:14:34;;;;;;;;;;;0.90;99.90;;;;;;5034742;28;20057;-94
2021/11/28 19:17:12;;;;;;;5.18;1.65;;;0.90;99.90;;;;;;5050973;28;19915;-93
2021/11/28 19:19:44;;;;;;;6.00;2.00;;;0.80;99.90;;;;;;5049535;28;20044;-93
2021/11/28 19:22:18;;;;;;;5.05;2.10;;;0.80;99.90;;;;;;5049518;28;20046;-94
2021/11/28 19:24:47;;;;;;;4.20;1.63;;;0.70;99.90;;;;;;5049702;28;20044;-93
2021/11/28 19:27:15;;;;;;;5.97;2.42;;;0.60;99.90;;;;;;5049688;28;20047;-93
2021/11/28 19:29:44;;;;;;;4.00;2.25;;;0.60;99.90;;;;;;5049544;28;20650;-92
2021/11/28 19:32:10;;;;;;;4.45;2.40;;;0.60;99.90;;;;;;5049568;28;20131;-93
2021/11/28 19:34:41;;;;;;;5.10;1.90;;;0.50;99.90;;;;;;5033003;28;20041;-94
2021/11/28 19:37:14;;;;;;;7.15;2.42;;;0.50;99.90;;;;;;5049087;28;20037;-93
2021/11/28 19:39:42;;;;;;;4.55;1.67;;;0.40;99.90;;;;;;5048960;28;20060;-94
2021/11/28 19:42:10;;;;;;;4.80;1.88;;;0.30;99.90;;;;;;5049142;28;20040;-93
2021/11/28 19:44:38;;;;;;;5.57;2.47;;;0.30;99.90;;;;;;5049276;28;20033;-94
2021/11/28 19:47:07;;;;;;;4.20;2.47;;;0.30;99.90;;;;;;5064921;28;20056;-94
2021/11/28 19:50:21;;;;;;;;;;;;;;;;;;;;;
2021/11/28 19:53:09;;;;;;;4.55;2.05;;;0.20;99.90;;;;;;5058229;28;20045;-93
2021/11/28 19:55:39;;;;;;;4.72;2.10;;;0.20;99.90;;;;;;5047005;28;20041;-94
2021/11/28 19:58:27;;;;;;;5.03;2.22;;;0.00;99.90;;;;;;5047981;28;20034;-94
2021/11/28 20:01:23;;;;;;;4.20;2.20;;;-0.10;99.90;;;;;;5055047;28;20113;-94
2021/11/28 20:03:56;;;;;;;3.88;2.20;;;0.00;99.90;;;;;;5046099;28;20044;-94
2021/11/28 20:06:22;;;;;;;7.05;2.72;;;0.00;99.90;;;;;;5040522;28;20069;-93
2021/11/28 20:08:48;;;;;;;5.75;2.38;;;-0.10;99.90;;;;;;5049792;28;20048;-93
2021/11/28 20:11:17;;;;;;;5.47;2.22;;;-0.20;99.90;;;;;;5053820;28;20037;-93
2021/11/28 20:13:56;;;;;;;3.28;1.92;;;-0.20;99.90;;;;;;5054324;28;20434;-94
2021/11/28 20:17:02;;;;;;;6.13;1.73;;;-0.30;99.90;;;;;;5046898;28;20046;-92
2021/11/28 20:19:48;;;;;;;4.45;2.03;;;-0.30;99.90;;;;;;5054504;28;20033;-92
2021/11/28 20:22:58;;;;;;;4.65;2.17;;;-0.40;99.90;;;;;;5048050;28;20134;-92
2021/11/28 20:29:16;;;;;;;7.35;3.97;;;-0.30;99.90;;;;;;5066877;28;20087;-94
2021/11/28 20:31:43;;;;;;;7.38;2.63;;;-0.20;99.90;;;;;;5060852;28;20040;-96
2021/11/28 20:34:18;;;;;;;5.93;2.22;;;-0.30;99.90;;;;;;5068959;28;20134;-94
2021/11/28 20:36:46;;;;;;;7.25;3.15;;;-0.30;99.90;;;;;;5069331;28;20033;-95
2021/11/28 20:39:12;;;;;;;6.05;2.45;;;-0.20;99.90;;;;;;5068773;28;20036;-94
2021/11/28 20:41:39;;;;;;;4.40;2.58;;;-0.30;99.90;;;;;;5052171;28;20040;-93
2021/11/28 20:44:09;;;;;;;6.43;3.22;;;-0.10;99.90;;;;;;5068552;28;20044;-95
2021/11/28 20:46:35;;;;;;;;;;;0.00;99.90;;;;;;5069337;28;20036;-94
2021/11/28 20:49:15;;;;;;;9.73;5.55;;;0.20;99.90;;;;;;5053032;28;19924;-95
2021/11/28 20:52:03;;;;;;;10.55;6.30;;;0.30;99.90;;;;;;5068976;28;20043;-94
2021/11/28 20:54:46;;;;;;;11.20;5.13;;;0.30;99.90;;;;;;5068695;28;20401;-94
2021/11/28 20:57:24;;;;;;;16.10;6.20;;;0.20;99.90;;;;;;5068838;28;20036;-94
2021/11/28 20:59:49;;;;;;;11.88;6.57;;;0.20;99.90;;;;;;5072177;28;20044;-93
2021/11/28 21:02:19;;;;;;;9.20;5.25;;;0.20;99.90;;;;;;5072645;28;20037;-92
2021/11/28 21:04:45;;;;;;;9.77;5.35;;;0.10;99.90;;;;;;5057577;28;20136;-94
2021/11/28 21:07:11;;;;;;;10.15;5.18;;;0.10;99.90;;;;;;5066048;28;20064;-93
2021/11/28 21:09:37;;;;;;;8.13;4.82;;;0.10;99.90;;;;;;5068932;28;20048;-91
2021/11/28 21:12:10;;;;;;;6.03;3.40;;;-0.10;99.90;;;;;;5069046;28;20040;-93
2021/11/28 21:14:39;;;;;;;6.75;3.72;;;-0.20;99.90;;;;;;5050654;28;20107;-93
2021/11/28 21:17:07;;;;;;;6.25;3.75;;;-0.20;99.90;;;;;;5074165;28;20098;-94
2021/11/28 21:19:35;;;;;;;6.57;3.10;;;-0.40;99.90;;;;;;5059907;28;20040;-94
2021/11/28 21:22:01;;;;;;;6.85;3.17;;;-0.50;99.90;;;;;;5051725;28;20107;-94
2021/11/28 21:24:28;;;;;;;5.97;3.10;;;-0.60;99.90;;;;;;5051041;28;20504;-94
2021/11/28 21:26:55;;;;;;;4.80;2.67;;;-0.60;99.90;;;;;;5036200;28;20461;-96
2021/11/28 21:29:21;;;;;;;5.45;3.13;;;-0.60;99.90;;;;;;5036027;28;20076;-95
2021/11/28 21:31:49;;;;;;;7.75;3.33;;;-0.60;99.90;;;;;;5056207;28;20100;-95
2021/11/28 21:34:17;;;;;;;7.25;2.97;;;-0.70;99.90;;;;;;5074142;28;20063;-95
2021/11/28 21:36:46;;;;;;;6.47;3.03;;;-0.80;99.90;;;;;;5057651;28;20029;-95
2021/11/28 21:39:24;;;;;;;6.72;3.20;;;-0.60;99.90;;;;;;5043740;28;20037;-94
2021/11/28 21:41:54;;;;;;;5.88;3.28;;;-0.80;99.90;;;;;;5126457;23;20048;-93
2021/11/28 21:44:21;;;;;;;4.88;2.70;;;-0.80;99.90;;;;;;5065216;28;20040;-92
2021/11/28 21:46:48;;;;;;;3.85;1.90;;;-0.90;99.90;;;;;;5065171;28;20043;-94
2021/11/28 21:49:13;;;;;;;6.85;2.53;;;-1.00;99.90;;;;;;5080394;28;20045;-95
2021/11/28 21:51:41;;;;;;;5.55;2.70;;;-1.00;99.90;;;;;;5080744;28;20060;-94
2021/11/28 21:54:10;;;;;;;5.68;2.30;;;-1.00;99.90;;;;;;5079076;28;20032;-93
2021/11/28 21:56:38;;;;;;;6.20;2.25;;;-1.10;99.90;;;;;;5060547;28;20040;-94
2021/11/28 21:59:05;;;;;;;5.30;2.40;;;-1.10;99.90;;;;;;5075602;28;20040;-93
2021/11/28 22:01:32;;;;;;;4.93;2.00;;;-1.00;99.90;;;;;;5059110;28;20040;-94
2021/11/28 22:03:59;;;;;;;7.85;2.38;;;-1.10;99.90;;;;;;5075471;28;20037;-94
2021/11/28 22:06:30;;;;;;;8.80;2.25;;;-1.10;99.90;;;;;;5076405;28;20051;-95
2021/11/28 22:09:05;;;;;;;6.38;2.60;;;-0.80;99.90;;;;;;5045245;28;20052;-94
2021/11/28 22:11:38;;;;;;;8.77;3.17;;;-0.60;99.90;;;;;;5082563;28;20067;-93
2021/11/28 22:14:16;;;;;;;10.75;5.05;;;-0.40;99.90;;;;;;5079349;28;20128;-95
2021/11/28 22:16:43;;;;;;;8.23;3.90;;;-0.30;99.90;;;;;;5062296;28;20044;-95
2021/11/28 22:19:11;;;;;;;11.77;4.55;;;-0.30;99.90;;;;;;5079222;28;20071;-94
2021/11/28 22:21:45;;;;;;;7.95;3.67;;;-0.30;99.90;;;;;;5097220;28;20056;-95
2021/11/28 22:24:12;;;;;;;11.40;4.63;;;-0.30;99.90;;;;;;5092634;28;20135;-94
2021/11/28 22:26:39;;;;;;;8.50;3.92;;;-0.20;99.90;;;;;;5075529;28;20032;-91
2021/11/28 22:29:07;;;;;;;9.23;4.32;;;-0.10;99.90;;;;;;5073312;28;20068;-95
2021/11/28 22:31:35;;;;;;;7.78;4.20;;;0.00;99.90;;;;;;5057240;28;20039;-95
2021/11/28 22:34:03;;;;;;;16.95;5.63;;;-0.10;99.90;;;;;;5073058;28;20041;-95
2021/11/28 22:36:32;;;;;;;10.48;4.15;;;0.00;99.90;;;;;;5055617;28;20070;-96
2021/11/28 22:38:58;;;;;;;11.52;3.95;;;0.10;99.90;;;;;;5040199;28;20107;-94
2021/11/28 22:41:25;;;;;;;11.30;3.60;;;0.10;99.90;;;;;;5072416;28;20112;-94
2021/11/28 22:44:28;;;;;;;9.15;4.72;;;0.00;99.90;;;;;;5062324;28;20048;-94
2021/11/28 22:47:02;;;;;;;10.07;4.00;;;0.00;99.90;;;;;;5056051;28;20489;-92
2021/11/28 22:49:29;;;;;;;10.70;4.40;;;0.10;99.90;;;;;;5058979;28;20043;-91
2021/11/28 22:52:01;;;;;;;10.35;4.50;;;0.10;99.90;;;;;;5092509;28;20135;-94
2021/11/28 22:54:27;;;;;;;9.55;4.40;;;0.10;99.90;;;;;;5058241;28;20045;-94
2021/11/28 22:56:54;;;;;;;9.35;3.67;;;0.10;99.90;;;;;;5059327;28;20048;-91
2021/11/28 22:59:20;;;;;;;8.98;4.55;;;0.20;99.90;;;;;;5058968;28;20058;-94
2021/11/28 23:01:47;;;;;;;11.10;4.50;;;0.20;99.90;;;;;;5059172;28;20397;-95
2021/11/28 23:04:16;;;;;;;10.55;4.25;;;0.20;99.90;;;;;;5061297;28;20037;-93
2021/11/28 23:06:47;;;;;;;11.80;4.50;;;0.10;99.90;;;;;;5062103;28;20063;-94
2021/11/28 23:09:17;;;;;;;11.35;3.55;;;0.20;99.90;;;;;;5093346;28;20040;-93
2021/11/28 23:11:47;;;;;;;10.55;3.95;;;0.20;99.90;;;;;;5024578;28;20041;-93
2021/11/28 23:14:16;;;;;;;10.15;3.72;;;0.10;99.90;;;;;;5057680;28;20028;-93
2021/11/28 23:16:45;;;;;;;8.50;3.60;;;-0.10;99.90;;;;;;5041785;28;20033;-94
2021/11/28 23:19:12;;;;;;;7.95;3.53;;;-0.10;99.90;;;;;;5040388;28;20040;-93
2021/11/28 23:21:39;;;;;;;10.68;3.42;;;0.00;99.90;;;;;;5038789;28;20036;-93
2021/11/28 23:24:06;;;;;;;8.13;3.80;;;0.10;99.90;;;;;;5040211;28;20038;-95
2021/11/28 23:29:12;;;;;;;9.50;3.85;;;0.00;99.90;;;;;;5070317;28;20055;-94
2021/11/28 23:31:42;;;;;;;11.15;3.90;;;0.00;99.90;;;;;;5039830;28;20044;-92
2021/11/28 23:34:12;;;;;;;6.28;2.78;;;0.00;99.90;;;;;;5055478;28;20112;-94
2021/11/28 23:36:41;;;;;;;7.38;3.30;;;-0.10;99.90;;;;;;5039307;28;20048;-94
2021/11/28 23:39:07;;;;;;;11.77;3.72;;;-0.10;99.90;;;;;;5051845;28;20056;-93
2021/11/28 23:41:33;;;;;;;8.32;3.35;;;0.00;99.90;;;;;;5033887;28;20048;-94
2021/11/28 23:44:00;;;;;;;9.20;3.50;;;-0.10;99.90;;;;;;5035548;28;20053;-93
2021/11/28 23:46:26;;;;;;;8.70;3.08;;;0.10;99.90;;;;;;5034323;28;20041;-93
2021/11/28 23:48:51;;;;;;;6.88;2.85;;;0.30;99.90;;;;;;5034586;28;20052;-95
2021/11/28 23:51:18;;;;;;;10.57;3.10;;;0.10;99.90;;;;;;5040462;28;20045;-93
2021/11/28 23:53:44;;;;;;;10.55;3.35;;;0.20;99.90;;;;;;5048818;28;20032;-94
2021/11/28 23:56:10;;;;;;;4.03;2.08;;;0.10;99.90;;;;;;5049038;28;20040;-94
2021/11/28 23:58:36;;;;;;;6.13;2.65;;;0.00;99.90;;;;;;5049008;28;20037;-94
